Terminal Aerodrome Forecast
Issued by NWS

Current Version | Previous Version | Graphics & Text | Print | Product List | Glossary On
Versions: 1 2 3 4 5 6 7 8 9 10 11 12 13 14 15 16 17 18 19 20
000
FTUS41 KILN 160859 AAA
TAFLUK
TAF AMD
KLUK 160859Z 1609/1706 30010KT P6SM SCT022 OVC070
      TEMPO 1609/1610 -SN BKN022
     FM161100 28006KT P6SM SCT022
     FM161900 27007KT P6SM BKN028
     FM170400 26005KT P6SM BKN040=

USA.gov is the U.S. government's official web portal to all federal, state and local government web resources and services.